createdAt,value
2023-04-15T00:01:01.723Z,100612.00
2023-04-15T00:03:29.883Z,100599.00
2023-04-15T00:05:58.302Z,100601.00
2023-04-15T00:08:25.578Z,100587.00
2023-04-15T00:10:53.145Z,100589.00
2023-04-15T00:13:20.310Z,100583.00
2023-04-15T00:15:48.028Z,100582.00
2023-04-15T00:18:14.892Z,100576.00
2023-04-15T00:20:41.819Z,100583.00
2023-04-15T00:23:08.675Z,100578.00
2023-04-15T00:25:35.507Z,100580.00
2023-04-15T00:28:02.712Z,100587.00
2023-04-15T00:30:29.543Z,100575.00
2023-04-15T00:32:56.457Z,100573.00
2023-04-15T00:35:24.093Z,100574.00
2023-04-15T00:37:51.549Z,100577.00
2023-04-15T00:40:24.664Z,100579.00
2023-04-15T00:42:52.358Z,100576.00
2023-04-15T00:45:19.289Z,100572.00
2023-04-15T00:47:46.220Z,100558.00
2023-04-15T00:50:14.393Z,100562.00
2023-04-15T00:52:41.549Z,100561.00
2023-04-15T00:55:09.166Z,100558.00
2023-04-15T00:57:36.445Z,100557.00
2023-04-15T01:00:04.735Z,100563.00
2023-04-15T01:02:32.040Z,100570.00
2023-04-15T01:04:58.972Z,100562.00
2023-04-15T01:07:26.210Z,100570.00
2023-04-15T01:09:53.074Z,100561.00
2023-04-15T01:12:20.530Z,100553.00
2023-04-15T01:14:47.443Z,100546.00
2023-04-15T01:17:14.548Z,100557.00
2023-04-15T01:19:41.849Z,100568.00
2023-04-15T01:22:09.219Z,100565.00
2023-04-15T01:24:36.952Z,100571.00
2023-04-15T01:27:05.361Z,100565.00
2023-04-15T01:29:33.381Z,100573.00
2023-04-15T01:32:00.269Z,100561.00
2023-04-15T01:34:27.168Z,100569.00
2023-04-15T01:36:54.017Z,100562.00
2023-04-15T01:39:20.951Z,100563.00
2023-04-15T01:41:47.932Z,100562.00
2023-04-15T01:44:14.832Z,100554.00
2023-04-15T01:46:41.714Z,100557.00
2023-04-15T01:49:08.530Z,100557.00
2023-04-15T01:51:35.320Z,100567.00
2023-04-15T01:54:02.100Z,100559.00
2023-04-15T01:56:28.926Z,100567.00
2023-04-15T01:58:55.789Z,100554.00
2023-04-15T02:01:22.727Z,100556.00
2023-04-15T02:03:49.622Z,100554.00
2023-04-15T02:06:16.564Z,100543.00
2023-04-15T02:08:43.408Z,100545.00
2023-04-15T02:11:10.231Z,100540.00
2023-04-15T02:13:37.064Z,100540.00
2023-04-15T02:16:04.139Z,100543.00
2023-04-15T02:18:31.092Z,100535.00
2023-04-15T02:20:58.901Z,100535.00
2023-04-15T02:23:26.086Z,100547.00
2023-04-15T02:25:53.234Z,100543.00
2023-04-15T02:28:22.015Z,100538.00
2023-04-15T02:30:53.457Z,100530.00
2023-04-15T02:33:21.841Z,100540.00
2023-04-15T02:35:48.729Z,100535.00
2023-04-15T02:38:17.894Z,100536.00
2023-04-15T02:40:44.758Z,100529.00
2023-04-15T02:43:11.610Z,100539.00
2023-04-15T02:45:38.429Z,100528.00
2023-04-15T02:48:06.728Z,100535.00
2023-04-15T02:50:33.664Z,100540.00
2023-04-15T02:53:01.683Z,100531.00
2023-04-15T02:55:29.343Z,100525.00
2023-04-15T02:57:56.454Z,100534.00
2023-04-15T03:00:25.349Z,100550.00
2023-04-15T03:02:56.393Z,100541.00
2023-04-15T03:05:25.404Z,100534.00
2023-04-15T03:07:52.724Z,100527.00
2023-04-15T03:10:20.147Z,100525.00
2023-04-15T03:12:47.086Z,100520.00
2023-04-15T03:15:13.956Z,100525.00
2023-04-15T03:17:40.862Z,100528.00
2023-04-15T03:20:08.832Z,100515.00
2023-04-15T03:22:35.752Z,100508.00
2023-04-15T03:25:02.562Z,100514.00
2023-04-15T03:27:29.339Z,100515.00
2023-04-15T03:29:56.841Z,100524.00
2023-04-15T03:32:23.781Z,100506.00
2023-04-15T03:34:50.695Z,100515.00
2023-04-15T03:37:17.565Z,100504.00
2023-04-15T03:39:44.360Z,100503.00
2023-04-15T03:42:11.121Z,100501.00
2023-04-15T03:44:38.432Z,100504.00
2023-04-15T03:47:05.354Z,100508.00
2023-04-15T03:49:32.289Z,100504.00
2023-04-15T03:51:59.753Z,100503.00
2023-04-15T03:54:26.662Z,100499.00
2023-04-15T03:56:53.506Z,100501.00
2023-04-15T03:59:20.439Z,100501.00
2023-04-15T04:01:47.345Z,100511.00
2023-04-15T04:04:14.283Z,100506.00
2023-04-15T04:06:41.444Z,100515.00
2023-04-15T04:09:08.285Z,100528.00
2023-04-15T04:11:35.240Z,100514.00
2023-04-15T04:14:02.151Z,100527.00
2023-04-15T04:16:29.067Z,100516.00
2023-04-15T04:18:56.044Z,100529.00
2023-04-15T04:21:22.844Z,100528.00
2023-04-15T04:23:49.684Z,100527.00
2023-04-15T04:26:16.630Z,100516.00
2023-04-15T04:28:43.507Z,100535.00
2023-04-15T04:31:10.305Z,100523.00
2023-04-15T04:33:37.162Z,100522.00
2023-04-15T04:36:04.289Z,100525.00
2023-04-15T04:38:31.118Z,100521.00
2023-04-15T04:40:58.040Z,100522.00
2023-04-15T04:43:24.882Z,100525.00
2023-04-15T04:45:52.047Z,100520.00
2023-04-15T04:48:18.948Z,100516.00
2023-04-15T04:50:47.071Z,100517.00
2023-04-15T04:53:13.972Z,100515.00
2023-04-15T04:55:40.774Z,100507.00
2023-04-15T04:58:07.589Z,100506.00
2023-04-15T05:00:34.581Z,100510.00
2023-04-15T05:03:01.692Z,100509.00
2023-04-15T05:05:28.691Z,100493.00
2023-04-15T05:07:55.652Z,100497.00
2023-04-15T05:10:22.568Z,100505.00
2023-04-15T05:12:49.524Z,100520.00
2023-04-15T05:15:16.403Z,100527.00
2023-04-15T05:17:43.281Z,100536.00
2023-04-15T05:20:10.547Z,100537.00
2023-04-15T05:22:37.379Z,100553.00
2023-04-15T05:25:04.573Z,100557.00
2023-04-15T05:27:31.760Z,100558.00
2023-04-15T05:29:58.642Z,100547.00
2023-04-15T05:32:25.689Z,100563.00
2023-04-15T05:34:52.645Z,100568.00
2023-04-15T05:37:22.375Z,100557.00
2023-04-15T05:39:49.204Z,100552.00
2023-04-15T05:42:15.976Z,100547.00
2023-04-15T05:44:42.894Z,100545.00
2023-04-15T05:47:10.894Z,100551.00
2023-04-15T05:49:37.698Z,100545.00
2023-04-15T05:52:04.624Z,100543.00
2023-04-15T05:54:31.712Z,100543.00
2023-04-15T05:56:59.016Z,100548.00
2023-04-15T05:59:26.040Z,100540.00
2023-04-15T06:01:53.147Z,100542.00
2023-04-15T06:04:20.199Z,100552.00
2023-04-15T06:06:47.209Z,100551.00
2023-04-15T06:09:14.132Z,100569.00
2023-04-15T06:11:41.398Z,100559.00
2023-04-15T06:14:08.440Z,100564.00
2023-04-15T06:16:36.766Z,100567.00
2023-04-15T06:19:03.999Z,100566.00
2023-04-15T06:21:31.533Z,100568.00
2023-04-15T06:24:00.148Z,100577.00
2023-04-15T06:26:27.276Z,100581.00
2023-04-15T06:28:54.189Z,100588.00
2023-04-15T06:31:21.463Z,100576.00
2023-04-15T06:33:48.374Z,100581.00
2023-04-15T06:36:15.486Z,100592.00
2023-04-15T06:38:42.392Z,100588.00
2023-04-15T06:41:09.358Z,100597.00
2023-04-15T06:43:36.330Z,100590.00
2023-04-15T06:46:03.206Z,100589.00
2023-04-15T06:48:31.958Z,100595.00
2023-04-15T06:50:58.833Z,100587.00
2023-04-15T06:53:28.063Z,100603.00
2023-04-15T06:55:55.134Z,100608.00
2023-04-15T06:58:22.414Z,100616.00
2023-04-15T07:00:49.365Z,100619.00
2023-04-15T07:03:16.340Z,100618.00
2023-04-15T07:05:43.505Z,100621.00
2023-04-15T07:08:10.439Z,100625.00
2023-04-15T07:10:37.317Z,100621.00
2023-04-15T07:13:04.444Z,100620.00
2023-04-15T07:15:31.272Z,100615.00
2023-04-15T07:17:58.194Z,100616.00
2023-04-15T07:20:25.705Z,100604.00
2023-04-15T07:22:53.140Z,100622.00
2023-04-15T07:25:20.083Z,100622.00
2023-04-15T07:27:47.442Z,100619.00
2023-04-15T07:30:14.764Z,100620.00
2023-04-15T07:32:42.306Z,100626.00
2023-04-15T07:35:09.836Z,100622.00
2023-04-15T07:37:36.719Z,100627.00
2023-04-15T07:40:05.025Z,100636.00
2023-04-15T07:42:31.828Z,100634.00
2023-04-15T07:44:58.680Z,100631.00
2023-04-15T07:47:25.855Z,100640.00
2023-04-15T07:49:53.193Z,100628.00
2023-04-15T07:52:20.099Z,100637.00
2023-04-15T07:54:46.938Z,100640.00
2023-04-15T07:57:13.821Z,100631.00
2023-04-15T07:59:40.702Z,100625.00
2023-04-15T08:02:08.441Z,100644.00
2023-04-15T08:04:35.397Z,100648.00
2023-04-15T08:07:05.625Z,100647.00
2023-04-15T08:09:32.427Z,100644.00
2023-04-15T08:11:59.321Z,100659.00
2023-04-15T08:14:26.439Z,100654.00
2023-04-15T08:16:53.442Z,100666.00
2023-04-15T08:19:20.656Z,100673.00
2023-04-15T08:21:47.487Z,100677.00
2023-04-15T08:24:14.528Z,100667.00
2023-04-15T08:26:41.965Z,100673.00
2023-04-15T08:29:09.249Z,100669.00
2023-04-15T08:31:36.221Z,100668.00
2023-04-15T08:34:03.681Z,100667.00
2023-04-15T08:36:30.913Z,100672.00
2023-04-15T08:38:57.862Z,100673.00
2023-04-15T08:41:26.247Z,100677.00
2023-04-15T08:43:58.202Z,100676.00
2023-04-15T08:46:25.573Z,100677.00
2023-04-15T08:48:52.571Z,100689.00
2023-04-15T08:51:19.774Z,100682.00
2023-04-15T08:53:47.509Z,100687.00
2023-04-15T08:56:16.768Z,100686.00
2023-04-15T08:58:44.947Z,100696.00
2023-04-15T09:01:14.928Z,100702.00
2023-04-15T09:03:42.406Z,100699.00
2023-04-15T09:06:09.450Z,100708.00
2023-04-15T09:08:36.305Z,100717.00
2023-04-15T09:11:03.891Z,100734.00
2023-04-15T09:13:31.004Z,100717.00
2023-04-15T09:16:00.702Z,100717.00
2023-04-15T09:18:29.858Z,100713.00
2023-04-15T09:20:57.462Z,100715.00
2023-04-15T09:23:24.384Z,100736.00
2023-04-15T09:25:51.381Z,100740.00
2023-04-15T09:28:24.857Z,100738.00
2023-04-15T09:31:01.819Z,100737.00
2023-04-15T09:33:29.746Z,100738.00
2023-04-15T09:36:14.765Z,100739.00
2023-04-15T09:38:56.108Z,100752.00
2023-04-15T09:41:23.331Z,100744.00
2023-04-15T09:43:50.449Z,100745.00
2023-04-15T09:46:17.312Z,100747.00
2023-04-15T09:48:44.273Z,100759.00
2023-04-15T09:51:11.122Z,100746.00
2023-04-15T09:53:38.407Z,100771.00
2023-04-15T09:56:07.854Z,100767.00
2023-04-15T09:58:37.126Z,100756.00
2023-04-15T10:01:06.299Z,100760.00
2023-04-15T10:03:38.203Z,100757.00
2023-04-15T10:06:05.804Z,100765.00
2023-04-15T10:08:34.993Z,100780.00
2023-04-15T10:11:02.577Z,100778.00
2023-04-15T10:13:37.357Z,100769.00
2023-04-15T10:16:12.007Z,100764.00
2023-04-15T10:18:44.208Z,100781.00
2023-04-15T10:21:14.131Z,100774.00
2023-04-15T10:23:40.997Z,100783.00
2023-04-15T10:26:08.298Z,100788.00
2023-04-15T10:28:35.137Z,100816.00
2023-04-15T10:31:03.003Z,100817.00
2023-04-15T10:33:30.106Z,100801.00
2023-04-15T10:35:57.026Z,100810.00
2023-04-15T10:38:41.761Z,100805.00
2023-04-15T10:41:24.327Z,100814.00
2023-04-15T10:43:54.932Z,100826.00
2023-04-15T10:46:36.756Z,100826.00
2023-04-15T10:49:12.822Z,100810.00
2023-04-15T10:51:42.170Z,100838.00
2023-04-15T10:54:13.786Z,100825.00
2023-04-15T10:56:45.097Z,100833.00
2023-04-15T10:59:12.130Z,100817.00
2023-04-15T11:02:02.598Z,100815.00
2023-04-15T11:04:51.485Z,100818.00
2023-04-15T11:07:46.922Z,100835.00
2023-04-15T11:10:13.787Z,100845.00
2023-04-15T11:12:42.010Z,100850.00
2023-04-15T11:15:32.508Z,100858.00
2023-04-15T11:18:09.411Z,100849.00
2023-04-15T11:20:37.262Z,100850.00
2023-04-15T11:23:08.169Z,100850.00
2023-04-15T11:25:41.826Z,100857.00
2023-04-15T11:28:08.733Z,100872.00
2023-04-15T11:30:38.787Z,100874.00
2023-04-15T11:33:09.302Z,100869.00
2023-04-15T11:35:36.719Z,100871.00
2023-04-15T11:38:05.347Z,100847.00
2023-04-15T11:40:35.857Z,100885.00
2023-04-15T11:43:11.203Z,100872.00
2023-04-15T11:45:47.990Z,100898.00
2023-04-15T11:48:15.057Z,100896.00
2023-04-15T11:50:41.830Z,100884.00
2023-04-15T11:53:10.459Z,100878.00
2023-04-15T11:55:49.818Z,100880.00
2023-04-15T11:58:17.956Z,100879.00
2023-04-15T12:00:55.050Z,100882.00
2023-04-15T12:03:27.494Z,100878.00
2023-04-15T12:06:27.737Z,100887.00
2023-04-15T12:09:12.238Z,100922.00
2023-04-15T12:11:50.205Z,100910.00
2023-04-15T12:14:20.152Z,100922.00
2023-04-15T12:16:51.758Z,100922.00
2023-04-15T12:19:25.266Z,100899.00
2023-04-15T12:21:59.957Z,100919.00
2023-04-15T12:24:27.199Z,100911.00
2023-04-15T12:26:57.293Z,100944.00
2023-04-15T12:29:29.113Z,100946.00
2023-04-15T12:32:05.101Z,100920.00
2023-04-15T12:34:33.591Z,100935.00
2023-04-15T12:37:02.496Z,100933.00
2023-04-15T12:39:32.615Z,100917.00
2023-04-15T12:42:00.458Z,100940.00
2023-04-15T12:44:28.053Z,100952.00
2023-04-15T12:46:55.412Z,100963.00
2023-04-15T12:49:23.261Z,100954.00
2023-04-15T12:51:51.470Z,100961.00
2023-04-15T12:54:18.616Z,100947.00
2023-04-15T12:56:46.588Z,100960.00
2023-04-15T12:59:14.174Z,100950.00
2023-04-15T13:01:41.494Z,100956.00
2023-04-15T13:04:08.868Z,100954.00
2023-04-15T13:06:36.384Z,100969.00
2023-04-15T13:09:05.251Z,100976.00
2023-04-15T13:11:33.924Z,100952.00
2023-04-15T13:14:02.255Z,100963.00
2023-04-15T13:16:29.853Z,100971.00
2023-04-15T13:18:56.817Z,100997.00
2023-04-15T13:21:23.640Z,101000.00
2023-04-15T13:23:51.276Z,101002.00
2023-04-15T13:26:18.694Z,101004.00
2023-04-15T13:28:46.133Z,100994.00
2023-04-15T13:31:13.009Z,100997.00
2023-04-15T13:33:39.960Z,101004.00
2023-04-15T13:36:06.971Z,101004.00
2023-04-15T13:38:33.794Z,101009.00
2023-04-15T13:41:00.651Z,101014.00
2023-04-15T13:43:27.610Z,101010.00
2023-04-15T13:45:54.517Z,101015.00
2023-04-15T13:48:21.348Z,101009.00
2023-04-15T13:50:48.429Z,101007.00
2023-04-15T13:53:15.277Z,101031.00
2023-04-15T13:55:42.795Z,101009.00
2023-04-15T13:58:10.293Z,101005.00
2023-04-15T14:00:37.343Z,101009.00
2023-04-15T14:03:04.559Z,101009.00
2023-04-15T14:05:32.339Z,101010.00
2023-04-15T14:08:00.453Z,101022.00
2023-04-15T14:10:27.369Z,101020.00
2023-04-15T14:12:54.401Z,101024.00
2023-04-15T14:15:21.568Z,101009.00
2023-04-15T14:17:48.456Z,101030.00
2023-04-15T14:20:17.162Z,101010.00
2023-04-15T14:22:44.364Z,101013.00
2023-04-15T14:25:17.294Z,100993.00
2023-04-15T14:27:50.188Z,101020.00
2023-04-15T14:30:17.595Z,101022.00
2023-04-15T14:32:44.448Z,101041.00
2023-04-15T14:35:11.424Z,101049.00
2023-04-15T14:37:38.415Z,101033.00
2023-04-15T14:40:06.092Z,101036.00
2023-04-15T14:42:32.968Z,101060.00
2023-04-15T14:44:59.800Z,101039.00
2023-04-15T14:47:26.714Z,101035.00
2023-04-15T14:49:53.698Z,101052.00
2023-04-15T14:52:20.491Z,101061.00
2023-04-15T14:54:47.322Z,101063.00
2023-04-15T14:57:14.178Z,101060.00
2023-04-15T14:59:40.996Z,101060.00
2023-04-15T15:02:08.654Z,101057.00
2023-04-15T15:04:36.223Z,101071.00
2023-04-15T15:07:03.213Z,101060.00
2023-04-15T15:09:30.084Z,101067.00
2023-04-15T15:11:57.314Z,101071.00
2023-04-15T15:14:24.658Z,101087.00
2023-04-15T15:16:51.562Z,101091.00
2023-04-15T15:19:18.412Z,101088.00
2023-04-15T15:21:45.512Z,101100.00
2023-04-15T15:24:12.334Z,101095.00
2023-04-15T15:26:40.115Z,101088.00
2023-04-15T15:29:07.099Z,101091.00
2023-04-15T15:31:37.166Z,101096.00
2023-04-15T15:34:04.119Z,101083.00
2023-04-15T15:36:33.807Z,101110.00
2023-04-15T15:39:00.860Z,101102.00
2023-04-15T15:41:27.712Z,101105.00
2023-04-15T15:43:54.678Z,101107.00
2023-04-15T15:46:21.570Z,101101.00
2023-04-15T15:48:48.420Z,101104.00
2023-04-15T15:51:16.315Z,101114.00
2023-04-15T15:53:44.685Z,101099.00
2023-04-15T15:56:11.556Z,101102.00
2023-04-15T15:58:38.469Z,101110.00
2023-04-15T16:01:05.913Z,101094.00
2023-04-15T16:03:32.927Z,101112.00
2023-04-15T16:05:59.856Z,101126.00
2023-04-15T16:08:27.153Z,101108.00
2023-04-15T16:10:53.925Z,101114.00
2023-04-15T16:13:21.068Z,101128.00
2023-04-15T16:15:49.868Z,101133.00
2023-04-15T16:18:17.385Z,101125.00
2023-04-15T16:20:44.336Z,101132.00
2023-04-15T16:23:16.394Z,101128.00
2023-04-15T16:25:44.180Z,101130.00
2023-04-15T16:28:25.101Z,101131.00
2023-04-15T16:30:53.886Z,101132.00
2023-04-15T16:33:21.212Z,101128.00
2023-04-15T16:35:48.137Z,101139.00
2023-04-15T16:38:15.008Z,101154.00
2023-04-15T16:40:42.149Z,101143.00
2023-04-15T16:43:11.248Z,101148.00
2023-04-15T16:45:38.334Z,101155.00
2023-04-15T16:48:05.352Z,101156.00
2023-04-15T16:50:32.277Z,101161.00
2023-04-15T16:52:59.134Z,101165.00
2023-04-15T16:55:26.861Z,101161.00
2023-04-15T16:58:01.595Z,101170.00
2023-04-15T17:00:36.154Z,101171.00
2023-04-15T17:03:03.483Z,101165.00
2023-04-15T17:05:31.159Z,101167.00
2023-04-15T17:07:58.406Z,101174.00
2023-04-15T17:10:25.233Z,101180.00
2023-04-15T17:12:52.697Z,101182.00
2023-04-15T17:15:19.959Z,101189.00
2023-04-15T17:17:46.881Z,101200.00
2023-04-15T17:20:13.872Z,101205.00
2023-04-15T17:22:40.743Z,101201.00
2023-04-15T17:25:08.076Z,101215.00
2023-04-15T17:27:35.240Z,101206.00
2023-04-15T17:30:02.089Z,101222.00
2023-04-15T17:32:31.953Z,101205.00
2023-04-15T17:34:58.890Z,101217.00
2023-04-15T17:37:25.751Z,101225.00
2023-04-15T17:39:52.869Z,101227.00
2023-04-15T17:42:19.816Z,101223.00
2023-04-15T17:44:46.684Z,101242.00
2023-04-15T17:47:13.469Z,101229.00
2023-04-15T17:49:40.392Z,101236.00
2023-04-15T17:52:07.188Z,101235.00
2023-04-15T17:54:34.077Z,101228.00
2023-04-15T17:57:03.127Z,101224.00
2023-04-15T17:59:30.150Z,101239.00
2023-04-15T18:01:58.482Z,101248.00
2023-04-15T18:04:26.926Z,101262.00
2023-04-15T18:06:54.131Z,101268.00
2023-04-15T18:09:21.009Z,101264.00
2023-04-15T18:11:48.855Z,101281.00
2023-04-15T18:14:27.101Z,101285.00
2023-04-15T18:17:00.726Z,101286.00
2023-04-15T18:19:27.787Z,101290.00
2023-04-15T18:21:54.651Z,101294.00
2023-04-15T18:24:22.262Z,101301.00
2023-04-15T18:26:49.466Z,101301.00
2023-04-15T18:29:16.500Z,101291.00
2023-04-15T18:31:43.615Z,101309.00
2023-04-15T18:34:10.763Z,101307.00
2023-04-15T18:36:37.582Z,101304.00
2023-04-15T18:39:05.082Z,101314.00
2023-04-15T18:41:32.145Z,101316.00
2023-04-15T18:43:59.008Z,101312.00
2023-04-15T18:46:25.906Z,101313.00
2023-04-15T18:48:52.694Z,101317.00
2023-04-15T18:51:19.558Z,101313.00
2023-04-15T18:53:46.392Z,101315.00
2023-04-15T18:56:13.237Z,101323.00
2023-04-15T18:59:21.254Z,101328.00
2023-04-15T19:01:26.962Z,101347.00
2023-04-15T19:03:53.831Z,101335.00
2023-04-15T19:06:22.255Z,101331.00
2023-04-15T19:08:49.600Z,101332.00
2023-04-15T19:11:16.586Z,101329.00
2023-04-15T19:13:43.466Z,101331.00
2023-04-15T19:16:10.425Z,101343.00
2023-04-15T19:18:37.252Z,101349.00
2023-04-15T19:21:04.191Z,101349.00
2023-04-15T19:23:31.877Z,101338.00
2023-04-15T19:25:58.842Z,101349.00
2023-04-15T19:28:28.122Z,101348.00
2023-04-15T19:30:55.140Z,101358.00
2023-04-15T19:33:22.010Z,101362.00
2023-04-15T19:35:50.145Z,101362.00
2023-04-15T19:38:17.175Z,101368.00
2023-04-15T19:40:44.196Z,101357.00
2023-04-15T19:43:11.098Z,101366.00
2023-04-15T19:45:37.928Z,101369.00
2023-04-15T19:48:06.186Z,101367.00
2023-04-15T19:50:33.196Z,101367.00
2023-04-15T19:53:00.044Z,101370.00
2023-04-15T19:55:26.908Z,101370.00
2023-04-15T19:57:53.693Z,101384.00
2023-04-15T20:00:20.870Z,101379.00
2023-04-15T20:02:47.864Z,101391.00
2023-04-15T20:05:14.920Z,101392.00
2023-04-15T20:07:47.693Z,101376.00
2023-04-15T20:10:14.520Z,101382.00
2023-04-15T20:12:50.271Z,101380.00
2023-04-15T20:15:19.714Z,101381.00
2023-04-15T20:17:46.670Z,101389.00
2023-04-15T20:20:13.617Z,101386.00
2023-04-15T20:22:41.103Z,101390.00
2023-04-15T20:25:08.784Z,101396.00
2023-04-15T20:27:35.740Z,101407.00
2023-04-15T20:30:04.749Z,101398.00
2023-04-15T20:32:35.412Z,101401.00
2023-04-15T20:35:03.813Z,101406.00
2023-04-15T20:37:33.079Z,101406.00
2023-04-15T20:40:00.702Z,101408.00
2023-04-15T20:42:27.528Z,101416.00
2023-04-15T20:44:54.504Z,101412.00
2023-04-15T20:47:21.464Z,101414.00
2023-04-15T20:49:48.430Z,101401.00
2023-04-15T20:52:15.283Z,101418.00
2023-04-15T20:54:42.141Z,101416.00
2023-04-15T20:57:09.065Z,101414.00
2023-04-15T20:59:36.051Z,101416.00
2023-04-15T21:02:03.104Z,101407.00
2023-04-15T21:04:30.253Z,101418.00
2023-04-15T21:06:57.087Z,101412.00
2023-04-15T21:09:24.900Z,101413.00
2023-04-15T21:14:21.503Z,101411.00
2023-04-15T21:16:48.533Z,101421.00
2023-04-15T21:19:15.421Z,101424.00
2023-04-15T21:21:42.368Z,101416.00
2023-04-15T21:24:09.258Z,101425.00
2023-04-15T21:26:36.279Z,101430.00
2023-04-15T21:29:03.463Z,101431.00
2023-04-15T21:31:30.663Z,101436.00
2023-04-15T21:33:57.561Z,101438.00
2023-04-15T21:36:24.455Z,101440.00
2023-04-15T21:38:51.319Z,101448.00
2023-04-15T21:41:18.160Z,101447.00
2023-04-15T21:43:45.011Z,101448.00
2023-04-15T21:46:24.117Z,101446.00
2023-04-15T21:48:55.336Z,101452.00
2023-04-15T21:51:22.434Z,101457.00
2023-04-15T21:53:49.341Z,101458.00
2023-04-15T21:56:16.234Z,101469.00
2023-04-15T21:58:43.283Z,101465.00
2023-04-15T22:01:10.218Z,101458.00
2023-04-15T22:03:37.359Z,101462.00
2023-04-15T22:06:04.462Z,101468.00
2023-04-15T22:08:38.570Z,101462.00
2023-04-15T22:11:29.621Z,101483.00
2023-04-15T22:13:57.875Z,101469.00
2023-04-15T22:16:27.837Z,101481.00
2023-04-15T22:18:55.513Z,101486.00
2023-04-15T22:21:22.774Z,101487.00
2023-04-15T22:23:49.685Z,101487.00
2023-04-15T22:26:16.614Z,101479.00
2023-04-15T22:28:43.513Z,101489.00
2023-04-15T22:31:10.509Z,101488.00
2023-04-15T22:33:37.404Z,101486.00
2023-04-15T22:36:04.215Z,101489.00
2023-04-15T22:38:31.292Z,101492.00
2023-04-15T22:40:58.518Z,101494.00
2023-04-15T22:43:26.054Z,101498.00
2023-04-15T22:45:56.660Z,101494.00
2023-04-15T22:48:23.583Z,101488.00
2023-04-15T22:50:50.551Z,101494.00
2023-04-15T22:53:17.812Z,101499.00
2023-04-15T22:55:48.342Z,101501.00
2023-04-15T22:58:15.878Z,101499.00
2023-04-15T23:00:42.716Z,101506.00
2023-04-15T23:03:09.879Z,101515.00
2023-04-15T23:05:37.349Z,101521.00
2023-04-15T23:08:04.196Z,101505.00
2023-04-15T23:10:31.056Z,101510.00
2023-04-15T23:12:57.897Z,101517.00
2023-04-15T23:15:25.332Z,101516.00
2023-04-15T23:17:52.147Z,101512.00
2023-04-15T23:20:18.945Z,101516.00
2023-04-15T23:22:45.769Z,101522.00
2023-04-15T23:25:12.622Z,101513.00
2023-04-15T23:27:39.417Z,101525.00
2023-04-15T23:30:07.086Z,101525.00
2023-04-15T23:32:34.885Z,101529.00
2023-04-15T23:35:01.759Z,101523.00
2023-04-15T23:37:30.291Z,101537.00
2023-04-15T23:39:57.139Z,101545.00
2023-04-15T23:42:24.237Z,101532.00
2023-04-15T23:44:51.375Z,101548.00
2023-04-15T23:47:18.226Z,101540.00
2023-04-15T23:49:45.046Z,101537.00
2023-04-15T23:52:11.980Z,101531.00
2023-04-15T23:54:39.719Z,101535.00
2023-04-15T23:57:06.519Z,101541.00
2023-04-15T23:59:33.391Z,101532.00
